Time;durP1;ratioP1;P1;durP2;ratioP2;P2;SDS_P1;SDS_P2;PMS_P1;PMS_P2;Temp;Humidity;BMP_temperature;BMP_pressure;BME280_temperature;BME280_humidity;BME280_pressure;Samples;Min_cycle;Max_cycle;Signal;HPM_P1;HPM_P2
2020/02/11 00:00:12;;;;;;;11;3.3;;;;;;;7.98;82.95996;93822.05;;;;
2020/02/11 00:02:32;;;;;;;11;3.3;;;;;;;7.98;82.95996;93822.05;;;;
2020/02/11 00:04:25;;;;;;;11;3.3;;;;;;;7.98;82.95996;93822.05;;;;
2020/02/11 00:09:41;;;;;;;11.3;3.15;;;;;;;8.08;83.21289;93783.03;;;;
2020/02/11 00:10:48;;;;;;;11.3;3.15;;;;;;;8.08;83.21289;93783.03;;;;
2020/02/11 00:11:54;;;;;;;11.3;3.15;;;;;;;8.08;83.21289;93783.03;;;;
2020/02/11 00:12:54;;;;;;;11.3;3.15;;;;;;;8.08;83.21289;93783.03;;;;
2020/02/11 00:13:55;;;;;;;11.3;3.15;;;;;;;8.08;83.21289;93783.03;;;;
2020/02/11 00:14:56;;;;;;;11.3;3.15;;;;;;;8.08;83.21289;93783.03;;;;
2020/02/11 00:15:57;;;;;;;11.3;3.15;;;;;;;8.08;83.21289;93783.03;;;;
2020/02/11 00:16:58;;;;;;;12.95;2.900001;;;;;;;8.17;82.20117;93781.48;;;;
2020/02/11 00:17:59;;;;;;;12.95;2.900001;;;;;;;8.17;82.20117;93781.48;;;;
2020/02/11 00:18:59;;;;;;;12.95;2.900001;;;;;;;8.17;82.20117;93781.48;;;;
2020/02/11 00:20:00;;;;;;;12.95;2.900001;;;;;;;8.17;82.20117;93781.48;;;;
2020/02/11 00:21:00;;;;;;;12.95;2.900001;;;;;;;8.17;82.20117;93781.48;;;;
2020/02/11 00:22:04;;;;;;;12.95;2.900001;;;;;;;8.17;82.20117;93781.48;;;;
2020/02/11 00:23:04;;;;;;;12.95;2.900001;;;;;;;8.17;82.20117;93781.48;;;;
2020/02/11 00:24:05;;;;;;;12.95;2.900001;;;;;;;8.17;82.20117;93781.48;;;;
2020/02/11 00:25:08;;;;;;;12.95;2.900001;;;;;;;8.17;82.20117;93781.48;;;;
2020/02/11 00:26:09;;;;;;;12.95;2.900001;;;;;;;8.17;82.20117;93781.48;;;;
2020/02/11 00:27:09;;;;;;;7.75;2.5;;;;;;;8.53;80.08887;93753.91;;;;
2020/02/11 00:28:10;;;;;;;7.75;2.5;;;;;;;8.53;80.08887;93753.91;;;;
2020/02/11 00:29:10;;;;;;;7.75;2.5;;;;;;;8.53;80.08887;93753.91;;;;
2020/02/11 00:30:13;;;;;;;7.75;2.5;;;;;;;8.53;80.08887;93753.91;;;;
2020/02/11 00:31:13;;;;;;;7.75;2.5;;;;;;;8.53;80.08887;93753.91;;;;
2020/02/11 00:32:14;;;;;;;7.75;2.5;;;;;;;8.53;80.08887;93753.91;;;;
2020/02/11 00:33:14;;;;;;;7.75;2.5;;;;;;;8.53;80.08887;93753.91;;;;
2020/02/11 00:34:15;;;;;;;7.75;2.5;;;;;;;8.53;80.08887;93753.91;;;;
2020/02/11 00:35:15;;;;;;;7.75;2.5;;;;;;;8.53;80.08887;93753.91;;;;
2020/02/11 00:36:17;;;;;;;7.75;2.5;;;;;;;8.53;80.08887;93753.91;;;;
2020/02/11 00:37:18;;;;;;;8.400001;2.6;;;;;;;8.83;76.92969;93707.37;;;;
2020/02/11 00:38:19;;;;;;;8.400001;2.6;;;;;;;8.83;76.92969;93707.37;;;;
2020/02/11 00:39:22;;;;;;;8.400001;2.6;;;;;;;8.83;76.92969;93707.37;;;;
2020/02/11 00:40:53;;;;;;;8.400001;2.6;;;;;;;8.83;76.92969;93707.37;;;;
2020/02/11 00:41:57;;;;;;;8.400001;2.6;;;;;;;8.83;76.92969;93707.37;;;;
2020/02/11 00:42:57;;;;;;;8.400001;2.6;;;;;;;8.83;76.92969;93707.37;;;;
2020/02/11 00:43:58;;;;;;;8.400001;2.6;;;;;;;8.83;76.92969;93707.37;;;;
2020/02/11 00:44:58;;;;;;;8.400001;2.6;;;;;;;8.83;76.92969;93707.37;;;;
2020/02/11 00:45:59;;;;;;;8.400001;2.6;;;;;;;8.83;76.92969;93707.37;;;;
2020/02/11 00:46:59;;;;;;;8.400001;2.6;;;;;;;8.83;76.92969;93707.37;;;;
2020/02/11 00:49:09;;;;;;;7.1;2.4;;;;;;;9.05;74.77441;93674.88;;;;
2020/02/11 00:50:11;;;;;;;7.1;2.4;;;;;;;9.05;74.77441;93674.88;;;;
2020/02/11 00:51:56;;;;;;;7.1;2.4;;;;;;;9.05;74.77441;93674.88;;;;
2020/02/11 00:53:00;;;;;;;7.1;2.4;;;;;;;9.05;74.77441;93674.88;;;;
2020/02/11 00:54:05;;;;;;;7.1;2.4;;;;;;;9.05;74.77441;93674.88;;;;
2020/02/11 00:55:47;;;;;;;7.1;2.4;;;;;;;9.05;74.77441;93674.88;;;;
2020/02/11 00:56:53;;;;;;;7.1;2.4;;;;;;;9.05;74.77441;93674.88;;;;
2020/02/11 00:57:53;;;;;;;7.1;2.4;;;;;;;9.05;74.77441;93674.88;;;;
2020/02/11 00:58:57;;;;;;;7.85;2.35;;;;;;;9.24;72.82031;93684.09;;;;
2020/02/11 00:59:58;;;;;;;7.85;2.35;;;;;;;9.24;72.82031;93684.09;;;;
2020/02/11 01:01:00;;;;;;;7.85;2.35;;;;;;;9.24;72.82031;93684.09;;;;
2020/02/11 01:02:31;;;;;;;7.85;2.35;;;;;;;9.24;72.82031;93684.09;;;;
2020/02/11 01:07:58;;;;;;;7.85;2.35;;;;;;;9.24;72.82031;93684.09;;;;
2020/02/11 01:09:06;;;;;;;7.85;2.35;;;;;;;9.24;72.82031;93684.09;;;;
2020/02/11 01:10:41;;;;;;;6.55;2.1;;;;;;;9.47;72.02832;93656.11;;;;
2020/02/11 01:11:56;;;;;;;6.55;2.1;;;;;;;9.47;72.02832;93656.11;;;;
2020/02/11 01:13:01;;;;;;;6.55;2.1;;;;;;;9.47;72.02832;93656.11;;;;
2020/02/11 01:14:09;;;;;;;6.55;2.1;;;;;;;9.47;72.02832;93656.11;;;;
2020/02/11 01:15:16;;;;;;;6.55;2.1;;;;;;;9.47;72.02832;93656.11;;;;
2020/02/11 01:16:35;;;;;;;6.55;2.1;;;;;;;9.47;72.02832;93656.11;;;;
2020/02/11 01:17:41;;;;;;;6.55;2.1;;;;;;;9.47;72.02832;93656.11;;;;
2020/02/11 01:18:45;;;;;;;6.55;2.1;;;;;;;9.47;72.02832;93656.11;;;;
2020/02/11 01:19:53;;;;;;;3;1.2;;;;;;;9.41;72.08203;93923.03;;;;
2020/02/11 01:21:05;;;;;;;3;1.2;;;;;;;9.41;72.08203;93923.03;;;;
2020/02/11 01:22:17;;;;;;;3;1.2;;;;;;;9.41;72.08203;93923.03;;;;
2020/02/11 01:23:21;;;;;;;3;1.2;;;;;;;9.41;72.08203;93923.03;;;;
2020/02/11 01:24:27;;;;;;;3;1.2;;;;;;;9.41;72.08203;93923.03;;;;
2020/02/11 01:25:29;;;;;;;3;1.2;;;;;;;9.41;72.08203;93923.03;;;;
2020/02/11 01:26:38;;;;;;;3;1.2;;;;;;;9.41;72.08203;93923.03;;;;
2020/02/11 01:28:45;;;;;;;3;1.2;;;;;;;9.41;72.08203;93923.03;;;;
2020/02/11 01:30:11;;;;;;;3;1.2;;;;;;;9.41;72.08203;93923.03;;;;
2020/02/11 01:32:22;;;;;;;0.5;0.5;;;;;;;6.4;71.27539;93953.69;;;;
2020/02/11 01:33:29;;;;;;;0.5;0.5;;;;;;;6.4;71.27539;93953.69;;;;
2020/02/11 01:34:48;;;;;;;0.5;0.5;;;;;;;6.4;71.27539;93953.69;;;;
2020/02/11 01:36:08;;;;;;;0.5;0.5;;;;;;;6.4;71.27539;93953.69;;;;
2020/02/11 01:37:20;;;;;;;0.5;0.5;;;;;;;6.4;71.27539;93953.69;;;;
2020/02/11 01:38:39;;;;;;;0.5;0.5;;;;;;;6.4;71.27539;93953.69;;;;
2020/02/11 01:39:45;;;;;;;0.5;0.5;;;;;;;6.4;71.27539;93953.69;;;;
2020/02/11 01:44:58;;;;;;;0.85;0.5;;;;;;;4.04;77.40039;93986.02;;;;
2020/02/11 01:46:06;;;;;;;0.85;0.5;;;;;;;4.04;77.40039;93986.02;;;;
2020/02/11 01:47:20;;;;;;;0.85;0.5;;;;;;;4.04;77.40039;93986.02;;;;
2020/02/11 01:48:25;;;;;;;0.85;0.5;;;;;;;4.04;77.40039;93986.02;;;;
2020/02/11 01:49:36;;;;;;;0.85;0.5;;;;;;;4.04;77.40039;93986.02;;;;
2020/02/11 01:51:00;;;;;;;0.85;0.5;;;;;;;4.04;77.40039;93986.02;;;;
2020/02/11 01:52:23;;;;;;;0.5;0.5;;;;;;;3.03;82.13965;94001.05;;;;
2020/02/11 01:53:39;;;;;;;0.5;0.5;;;;;;;3.03;82.13965;94001.05;;;;
2020/02/11 01:54:40;;;;;;;0.5;0.5;;;;;;;3.03;82.13965;94001.05;;;;
2020/02/11 01:55:59;;;;;;;0.5;0.5;;;;;;;3.03;82.13965;94001.05;;;;
2020/02/11 01:57:06;;;;;;;0.5;0.5;;;;;;;3.03;82.13965;94001.05;;;;
2020/02/11 01:58:37;;;;;;;0.5;0.5;;;;;;;3.03;82.13965;94001.05;;;;
2020/02/11 01:59:43;;;;;;;0.5;0.5;;;;;;;3.03;82.13965;94001.05;;;;
2020/02/11 02:00:46;;;;;;;0.5;0.5;;;;;;;3.03;82.13965;94001.05;;;;
2020/02/11 02:03:04;;;;;;;0.6;0.6;;;;;;;2.48;84.80176;93994.3;;;;
2020/02/11 02:04:24;;;;;;;0.6;0.6;;;;;;;2.48;84.80176;93994.3;;;;
2020/02/11 02:05:49;;;;;;;0.6;0.6;;;;;;;2.48;84.80176;93994.3;;;;
2020/02/11 02:06:53;;;;;;;0.6;0.6;;;;;;;2.48;84.80176;93994.3;;;;
2020/02/11 02:08:04;;;;;;;0.6;0.6;;;;;;;2.48;84.80176;93994.3;;;;
2020/02/11 02:09:12;;;;;;;0.6;0.6;;;;;;;2.48;84.80176;93994.3;;;;
2020/02/11 02:12:04;;;;;;;0.6;0.6;;;;;;;2.48;84.80176;93994.3;;;;
2020/02/11 02:13:09;;;;;;;0.5;0.5;;;;;;;2.26;87.94824;94016.63;;;;
2020/02/11 02:14:20;;;;;;;0.5;0.5;;;;;;;2.26;87.94824;94016.63;;;;
2020/02/11 02:15:34;;;;;;;0.5;0.5;;;;;;;2.26;87.94824;94016.63;;;;
2020/02/11 02:17:05;;;;;;;0.5;0.5;;;;;;;2.26;87.94824;94016.63;;;;
2020/02/11 02:18:45;;;;;;;0.5;0.5;;;;;;;2.26;87.94824;94016.63;;;;
2020/02/11 02:19:57;;;;;;;0.5;0.5;;;;;;;2.26;87.94824;94016.63;;;;
2020/02/11 02:21:27;;;;;;;0.5;0.5;;;;;;;2.26;87.94824;94016.63;;;;
2020/02/11 02:22:50;;;;;;;0.5;0.5;;;;;;;2.26;87.94824;94016.63;;;;
2020/02/11 02:23:58;;;;;;;0.75;0.6;;;;;;;2.18;90.22949;94060.01;;;;
2020/02/11 02:25:00;;;;;;;0.75;0.6;;;;;;;2.18;90.22949;94060.01;;;;
2020/02/11 02:26:10;;;;;;;0.75;0.6;;;;;;;2.18;90.22949;94060.01;;;;
2020/02/11 02:27:25;;;;;;;0.75;0.6;;;;;;;2.18;90.22949;94060.01;;;;
2020/02/11 02:28:35;;;;;;;0.75;0.6;;;;;;;2.18;90.22949;94060.01;;;;
2020/02/11 02:29:38;;;;;;;0.75;0.6;;;;;;;2.18;90.22949;94060.01;;;;
2020/02/11 02:30:38;;;;;;;0.75;0.6;;;;;;;2.18;90.22949;94060.01;;;;
2020/02/11 02:31:54;;;;;;;0.75;0.6;;;;;;;2.18;90.22949;94060.01;;;;
2020/02/11 02:33:48;;;;;;;0.75;0.6;;;;;;;2.18;90.22949;94060.01;;;;
2020/02/11 02:35:13;;;;;;;0.6;0.6;;;;;;;2.23;92.55664;94072.03;;;;
2020/02/11 02:37:36;;;;;;;0.6;0.6;;;;;;;2.23;92.55664;94072.03;;;;
2020/02/11 02:39:29;;;;;;;0.6;0.6;;;;;;;2.23;92.55664;94072.03;;;;
2020/02/11 02:42:06;;;;;;;0.6;0.6;;;;;;;2.23;92.55664;94072.03;;;;
2020/02/11 02:43:22;;;;;;;0.6;0.6;;;;;;;2.23;92.55664;94072.03;;;;
2020/02/11 02:44:42;;;;;;;0.6;0.6;;;;;;;2.23;92.55664;94072.03;;;;
2020/02/11 02:45:58;;;;;;;2.3;0.9;;;;;;;2.24;94.03027;94073.77;;;;
2020/02/11 02:47:19;;;;;;;2.3;0.9;;;;;;;2.24;94.03027;94073.77;;;;
2020/02/11 02:48:32;;;;;;;2.3;0.9;;;;;;;2.24;94.03027;94073.77;;;;
2020/02/11 02:49:52;;;;;;;2.3;0.9;;;;;;;2.24;94.03027;94073.77;;;;
2020/02/11 02:51:00;;;;;;;2.3;0.9;;;;;;;2.24;94.03027;94073.77;;;;
2020/02/11 02:53:38;;;;;;;2.3;0.9;;;;;;;2.24;94.03027;94073.77;;;;
2020/02/11 02:54:39;;;;;;;2.3;0.9;;;;;;;2.24;94.03027;94073.77;;;;
2020/02/11 02:55:39;;;;;;;1.5;0.8;;;;;;;2.34;95.99316;94121.53;;;;
2020/02/11 02:56:40;;;;;;;1.5;0.8;;;;;;;2.34;95.99316;94121.53;;;;
2020/02/11 02:57:40;;;;;;;1.5;0.8;;;;;;;2.34;95.99316;94121.53;;;;
2020/02/11 02:58:41;;;;;;;1.5;0.8;;;;;;;2.34;95.99316;94121.53;;;;
2020/02/11 02:59:41;;;;;;;1.5;0.8;;;;;;;2.34;95.99316;94121.53;;;;
2020/02/11 03:00:41;;;;;;;1.5;0.8;;;;;;;2.34;95.99316;94121.53;;;;
2020/02/11 03:02:59;;;;;;;1.5;0.8;;;;;;;2.34;95.99316;94121.53;;;;
2020/02/11 03:04:15;;;;;;;1.5;0.8;;;;;;;2.34;95.99316;94121.53;;;;
2020/02/11 03:05:16;;;;;;;1.5;0.8;;;;;;;2.34;95.99316;94121.53;;;;
2020/02/11 03:06:28;;;;;;;3;1.15;;;;;;;2.42;97.37598;94167.08;;;;
2020/02/11 03:07:46;;;;;;;3;1.15;;;;;;;2.42;97.37598;94167.08;;;;
2020/02/11 03:09:06;;;;;;;3;1.15;;;;;;;2.42;97.37598;94167.08;;;;
2020/02/11 03:11:15;;;;;;;3;1.15;;;;;;;2.42;97.37598;94167.08;;;;
2020/02/11 03:12:30;;;;;;;3;1.15;;;;;;;2.42;97.37598;94167.08;;;;
2020/02/11 03:13:36;;;;;;;3;1.15;;;;;;;2.42;97.37598;94167.08;;;;
2020/02/11 03:14:46;;;;;;;3;1.15;;;;;;;2.42;97.37598;94167.08;;;;
2020/02/11 03:15:56;;;;;;;3;1.15;;;;;;;2.42;97.37598;94167.08;;;;
2020/02/11 03:17:08;;;;;;;2.2;0.8;;;;;;;2.55;98.94922;94155.02;;;;
2020/02/11 03:18:27;;;;;;;2.2;0.8;;;;;;;2.55;98.94922;94155.02;;;;
2020/02/11 03:19:35;;;;;;;2.2;0.8;;;;;;;2.55;98.94922;94155.02;;;;
2020/02/11 03:20:36;;;;;;;2.2;0.8;;;;;;;2.55;98.94922;94155.02;;;;
2020/02/11 03:21:45;;;;;;;2.2;0.8;;;;;;;2.55;98.94922;94155.02;;;;
2020/02/11 03:22:46;;;;;;;2.2;0.8;;;;;;;2.55;98.94922;94155.02;;;;
2020/02/11 03:23:51;;;;;;;2.2;0.8;;;;;;;2.55;98.94922;94155.02;;;;
2020/02/11 03:25:34;;;;;;;2.2;0.8;;;;;;;2.55;98.94922;94155.02;;;;
2020/02/11 03:27:03;;;;;;;2.1;0.8;;;;;;;2.6;99.58691;94189.73;;;;
2020/02/11 03:28:21;;;;;;;2.1;0.8;;;;;;;2.6;99.58691;94189.73;;;;
2020/02/11 03:29:32;;;;;;;2.1;0.8;;;;;;;2.6;99.58691;94189.73;;;;
2020/02/11 03:30:52;;;;;;;2.1;0.8;;;;;;;2.6;99.58691;94189.73;;;;
2020/02/11 03:31:56;;;;;;;2.1;0.8;;;;;;;2.6;99.58691;94189.73;;;;
2020/02/11 03:32:58;;;;;;;2.1;0.8;;;;;;;2.6;99.58691;94189.73;;;;
2020/02/11 03:33:59;;;;;;;2.1;0.8;;;;;;;2.6;99.58691;94189.73;;;;
2020/02/11 03:35:02;;;;;;;2.1;0.8;;;;;;;2.6;99.58691;94189.73;;;;
2020/02/11 03:36:07;;;;;;;2.1;0.8;;;;;;;2.6;99.58691;94189.73;;;;
2020/02/11 03:37:11;;;;;;;2.1;0.8;;;;;;;2.6;99.58691;94189.73;;;;
2020/02/11 03:38:14;;;;;;;2.65;1;;;;;;;2.73;100;94208.81;;;;
2020/02/11 03:39:26;;;;;;;2.65;1;;;;;;;2.73;100;94208.81;;;;
2020/02/11 03:40:51;;;;;;;2.65;1;;;;;;;2.73;100;94208.81;;;;
2020/02/11 03:41:53;;;;;;;2.65;1;;;;;;;2.73;100;94208.81;;;;
2020/02/11 03:42:54;;;;;;;2.65;1;;;;;;;2.73;100;94208.81;;;;
2020/02/11 03:43:54;;;;;;;2.65;1;;;;;;;2.73;100;94208.81;;;;
2020/02/11 03:44:55;;;;;;;2.65;1;;;;;;;2.73;100;94208.81;;;;
2020/02/11 03:45:56;;;;;;;2.65;1;;;;;;;2.73;100;94208.81;;;;
2020/02/11 03:46:57;;;;;;;2.65;1;;;;;;;2.73;100;94208.81;;;;
2020/02/11 03:48:00;;;;;;;2.65;1;;;;;;;2.73;100;94208.81;;;;
2020/02/11 03:49:01;;;;;;;1.55;0.8;;;;;;;2.77;100;94233.06;;;;
2020/02/11 03:50:01;;;;;;;1.55;0.8;;;;;;;2.77;100;94233.06;;;;
2020/02/11 03:51:02;;;;;;;1.55;0.8;;;;;;;2.77;100;94233.06;;;;
2020/02/11 03:52:39;;;;;;;1.55;0.8;;;;;;;2.77;100;94233.06;;;;
2020/02/11 03:53:40;;;;;;;1.55;0.8;;;;;;;2.77;100;94233.06;;;;
2020/02/11 03:54:41;;;;;;;1.55;0.8;;;;;;;2.77;100;94233.06;;;;
2020/02/11 03:55:50;;;;;;;1.55;0.8;;;;;;;2.77;100;94233.06;;;;
2020/02/11 03:56:56;;;;;;;1.55;0.8;;;;;;;2.77;100;94233.06;;;;
2020/02/11 03:58:22;;;;;;;1.55;0.8;;;;;;;2.77;100;94233.06;;;;
2020/02/11 03:59:29;;;;;;;1.1;0.9;;;;;;;2.89;100;94262.53;;;;
2020/02/11 04:00:38;;;;;;;1.1;0.9;;;;;;;2.89;100;94262.53;;;;
2020/02/11 04:02:00;;;;;;;1.1;0.9;;;;;;;2.89;100;94262.53;;;;
2020/02/11 04:03:53;;;;;;;1.1;0.9;;;;;;;2.89;100;94262.53;;;;
2020/02/11 04:04:54;;;;;;;1.1;0.9;;;;;;;2.89;100;94262.53;;;;
2020/02/11 04:05:54;;;;;;;1.1;0.9;;;;;;;2.89;100;94262.53;;;;
2020/02/11 04:06:56;;;;;;;1.1;0.9;;;;;;;2.89;100;94262.53;;;;
2020/02/11 04:07:57;;;;;;;1.1;0.9;;;;;;;2.89;100;94262.53;;;;
2020/02/11 04:08:57;;;;;;;1.1;0.9;;;;;;;2.89;100;94262.53;;;;
2020/02/11 04:09:58;;;;;;;1.3;0.85;;;;;;;2.9;100;94265.89;;;;
2020/02/11 04:10:58;;;;;;;1.3;0.85;;;;;;;2.9;100;94265.89;;;;
2020/02/11 04:11:59;;;;;;;1.3;0.85;;;;;;;2.9;100;94265.89;;;;
2020/02/11 04:13:03;;;;;;;1.3;0.85;;;;;;;2.9;100;94265.89;;;;
2020/02/11 04:14:04;;;;;;;1.3;0.85;;;;;;;2.9;100;94265.89;;;;
2020/02/11 04:15:05;;;;;;;1.3;0.85;;;;;;;2.9;100;94265.89;;;;
2020/02/11 04:16:05;;;;;;;1.3;0.85;;;;;;;2.9;100;94265.89;;;;
2020/02/11 04:17:11;;;;;;;1.3;0.85;;;;;;;2.9;100;94265.89;;;;
2020/02/11 04:18:14;;;;;;;1.3;0.85;;;;;;;2.9;100;94265.89;;;;
2020/02/11 04:19:19;;;;;;;1.3;0.85;;;;;;;2.9;100;94265.89;;;;
2020/02/11 04:20:27;;;;;;;1.15;1;;;;;;;2.99;100;94293.02;;;;
2020/02/11 04:21:38;;;;;;;1.15;1;;;;;;;2.99;100;94293.02;;;;
2020/02/11 04:22:39;;;;;;;1.15;1;;;;;;;2.99;100;94293.02;;;;
2020/02/11 04:23:41;;;;;;;1.15;1;;;;;;;2.99;100;94293.02;;;;
2020/02/11 04:24:48;;;;;;;1.15;1;;;;;;;2.99;100;94293.02;;;;
2020/02/11 04:25:53;;;;;;;1.15;1;;;;;;;2.99;100;94293.02;;;;
2020/02/11 04:26:53;;;;;;;1.15;1;;;;;;;2.99;100;94293.02;;;;
2020/02/11 04:27:54;;;;;;;1.15;1;;;;;;;2.99;100;94293.02;;;;
2020/02/11 04:28:54;;;;;;;1.15;1;;;;;;;2.99;100;94293.02;;;;
2020/02/11 04:29:54;;;;;;;1.15;1;;;;;;;2.99;100;94293.02;;;;
2020/02/11 04:30:55;;;;;;;1;0.9;;;;;;;2.98;100;94314.15;;;;
2020/02/11 04:31:55;;;;;;;1;0.9;;;;;;;2.98;100;94314.15;;;;
2020/02/11 04:33:28;;;;;;;1;0.9;;;;;;;2.98;100;94314.15;;;;
2020/02/11 04:34:36;;;;;;;1;0.9;;;;;;;2.98;100;94314.15;;;;
2020/02/11 04:35:36;;;;;;;1;0.9;;;;;;;2.98;100;94314.15;;;;
2020/02/11 04:36:37;;;;;;;1;0.9;;;;;;;2.98;100;94314.15;;;;
2020/02/11 04:37:37;;;;;;;1;0.9;;;;;;;2.98;100;94314.15;;;;
2020/02/11 04:38:38;;;;;;;1;0.9;;;;;;;2.98;100;94314.15;;;;
2020/02/11 04:39:38;;;;;;;1;0.9;;;;;;;2.98;100;94314.15;;;;
2020/02/11 04:40:39;;;;;;;1;0.9;;;;;;;2.98;100;94314.15;;;;
2020/02/11 04:41:39;;;;;;;0.8;0.8;;;;;;;3.05;100;94346.01;;;;
2020/02/11 04:42:40;;;;;;;0.8;0.8;;;;;;;3.05;100;94346.01;;;;
2020/02/11 04:43:40;;;;;;;0.8;0.8;;;;;;;3.05;100;94346.01;;;;
2020/02/11 04:44:41;;;;;;;0.8;0.8;;;;;;;3.05;100;94346.01;;;;
2020/02/11 04:45:41;;;;;;;0.8;0.8;;;;;;;3.05;100;94346.01;;;;
2020/02/11 04:46:42;;;;;;;0.8;0.8;;;;;;;3.05;100;94346.01;;;;
2020/02/11 04:47:42;;;;;;;0.8;0.8;;;;;;;3.05;100;94346.01;;;;
2020/02/11 04:48:42;;;;;;;0.8;0.8;;;;;;;3.05;100;94346.01;;;;
2020/02/11 04:49:43;;;;;;;0.8;0.8;;;;;;;3.05;100;94346.01;;;;
2020/02/11 04:50:45;;;;;;;0.8;0.8;;;;;;;3.05;100;94346.01;;;;
2020/02/11 04:51:48;;;;;;;0.8;0.8;;;;;;;3.05;100;94346.01;;;;
2020/02/11 04:52:49;;;;;;;1.55;0.8;;;;;;;3.05;100;94350.01;;;;
2020/02/11 04:53:54;;;;;;;1.55;0.8;;;;;;;3.05;100;94350.01;;;;
2020/02/11 04:54:54;;;;;;;1.55;0.8;;;;;;;3.05;100;94350.01;;;;
2020/02/11 04:55:55;;;;;;;1.55;0.8;;;;;;;3.05;100;94350.01;;;;
2020/02/11 04:57:00;;;;;;;1.55;0.8;;;;;;;3.05;100;94350.01;;;;
2020/02/11 04:58:00;;;;;;;1.55;0.8;;;;;;;3.05;100;94350.01;;;;
2020/02/11 04:59:02;;;;;;;1.55;0.8;;;;;;;3.05;100;94350.01;;;;
2020/02/11 05:00:02;;;;;;;1.55;0.8;;;;;;;3.05;100;94350.01;;;;
2020/02/11 05:01:06;;;;;;;1.55;0.8;;;;;;;3.05;100;94350.01;;;;
2020/02/11 05:02:09;;;;;;;1.55;0.8;;;;;;;3.05;100;94350.01;;;;
2020/02/11 05:03:12;;;;;;;1.25;0.75;;;;;;;3.11;100;94355.42;;;;
2020/02/11 05:04:13;;;;;;;1.25;0.75;;;;;;;3.11;100;94355.42;;;;
2020/02/11 05:05:16;;;;;;;1.25;0.75;;;;;;;3.11;100;94355.42;;;;
2020/02/11 05:06:28;;;;;;;1.25;0.75;;;;;;;3.11;100;94355.42;;;;
2020/02/11 05:07:29;;;;;;;1.25;0.75;;;;;;;3.11;100;94355.42;;;;
2020/02/11 05:08:30;;;;;;;1.25;0.75;;;;;;;3.11;100;94355.42;;;;
2020/02/11 05:09:30;;;;;;;1.25;0.75;;;;;;;3.11;100;94355.42;;;;
2020/02/11 05:11:26;;;;;;;1.25;0.75;;;;;;;3.11;100;94355.42;;;;
2020/02/11 05:12:33;;;;;;;1.25;0.75;;;;;;;3.11;100;94355.42;;;;
2020/02/11 05:13:35;;;;;;;0.85;0.7;;;;;;;3.08;100;94373.99;;;;
2020/02/11 05:14:39;;;;;;;0.85;0.7;;;;;;;3.08;100;94373.99;;;;
2020/02/11 05:15:39;;;;;;;0.85;0.7;;;;;;;3.08;100;94373.99;;;;
2020/02/11 05:16:40;;;;;;;0.85;0.7;;;;;;;3.08;100;94373.99;;;;
2020/02/11 05:17:40;;;;;;;0.85;0.7;;;;;;;3.08;100;94373.99;;;;
2020/02/11 05:18:41;;;;;;;0.85;0.7;;;;;;;3.08;100;94373.99;;;;
2020/02/11 05:19:41;;;;;;;0.85;0.7;;;;;;;3.08;100;94373.99;;;;
2020/02/11 05:20:42;;;;;;;0.85;0.7;;;;;;;3.08;100;94373.99;;;;
2020/02/11 05:21:43;;;;;;;0.85;0.7;;;;;;;3.08;100;94373.99;;;;
2020/02/11 05:22:43;;;;;;;0.85;0.7;;;;;;;3.08;100;94373.99;;;;
2020/02/11 05:23:44;;;;;;;0.85;0.7;;;;;;;3.08;100;94373.99;;;;
2020/02/11 05:24:44;;;;;;;0.75;0.6;;;;;;;3.11;100;94359.42;;;;
2020/02/11 05:25:45;;;;;;;0.75;0.6;;;;;;;3.11;100;94359.42;;;;
2020/02/11 05:26:46;;;;;;;0.75;0.6;;;;;;;3.11;100;94359.42;;;;
2020/02/11 05:27:46;;;;;;;0.75;0.6;;;;;;;3.11;100;94359.42;;;;
2020/02/11 05:28:47;;;;;;;0.75;0.6;;;;;;;3.11;100;94359.42;;;;
2020/02/11 05:29:47;;;;;;;0.75;0.6;;;;;;;3.11;100;94359.42;;;;
2020/02/11 05:30:48;;;;;;;0.75;0.6;;;;;;;3.11;100;94359.42;;;;
2020/02/11 05:31:50;;;;;;;0.75;0.6;;;;;;;3.11;100;94359.42;;;;
2020/02/11 05:32:50;;;;;;;0.75;0.6;;;;;;;3.11;100;94359.42;;;;
2020/02/11 05:33:51;;;;;;;0.75;0.6;;;;;;;3.11;100;94359.42;;;;
2020/02/11 05:34:51;;;;;;;0.8;0.7;;;;;;;3.05;100;94374.92;;;;
2020/02/11 05:35:52;;;;;;;0.8;0.7;;;;;;;3.05;100;94374.92;;;;
2020/02/11 05:36:52;;;;;;;0.8;0.7;;;;;;;3.05;100;94374.92;;;;
2020/02/11 05:38:00;;;;;;;0.8;0.7;;;;;;;3.05;100;94374.92;;;;
2020/02/11 05:39:02;;;;;;;0.8;0.7;;;;;;;3.05;100;94374.92;;;;
2020/02/11 05:40:13;;;;;;;0.8;0.7;;;;;;;3.05;100;94374.92;;;;
2020/02/11 05:41:22;;;;;;;0.8;0.7;;;;;;;3.05;100;94374.92;;;;
2020/02/11 05:42:27;;;;;;;0.8;0.7;;;;;;;3.05;100;94374.92;;;;
2020/02/11 05:43:27;;;;;;;0.8;0.7;;;;;;;3.05;100;94374.92;;;;
2020/02/11 05:44:28;;;;;;;0.8;0.7;;;;;;;3.05;100;94374.92;;;;
2020/02/11 05:45:28;;;;;;;2;0.85;;;;;;;3.09;99.94043;94392.97;;;;
2020/02/11 05:46:30;;;;;;;2;0.85;;;;;;;3.09;99.94043;94392.97;;;;
2020/02/11 05:47:31;;;;;;;2;0.85;;;;;;;3.09;99.94043;94392.97;;;;
2020/02/11 05:48:32;;;;;;;2;0.85;;;;;;;3.09;99.94043;94392.97;;;;
2020/02/11 05:49:33;;;;;;;2;0.85;;;;;;;3.09;99.94043;94392.97;;;;
2020/02/11 05:50:33;;;;;;;2;0.85;;;;;;;3.09;99.94043;94392.97;;;;
2020/02/11 05:51:36;;;;;;;2;0.85;;;;;;;3.09;99.94043;94392.97;;;;
2020/02/11 05:52:36;;;;;;;2;0.85;;;;;;;3.09;99.94043;94392.97;;;;
2020/02/11 05:53:37;;;;;;;2;0.85;;;;;;;3.09;99.94043;94392.97;;;;
2020/02/11 05:54:37;;;;;;;2;0.85;;;;;;;3.09;99.94043;94392.97;;;;
2020/02/11 05:55:38;;;;;;;1.65;1;;;;;;;3.16;99.0791;94375.09;;;;
2020/02/11 05:56:39;;;;;;;1.65;1;;;;;;;3.16;99.0791;94375.09;;;;
2020/02/11 05:57:40;;;;;;;1.65;1;;;;;;;3.16;99.0791;94375.09;;;;
2020/02/11 05:58:41;;;;;;;1.65;1;;;;;;;3.16;99.0791;94375.09;;;;
2020/02/11 05:59:41;;;;;;;1.65;1;;;;;;;3.16;99.0791;94375.09;;;;
2020/02/11 06:00:42;;;;;;;1.65;1;;;;;;;3.16;99.0791;94375.09;;;;
2020/02/11 06:01:43;;;;;;;1.65;1;;;;;;;3.16;99.0791;94375.09;;;;
2020/02/11 06:02:43;;;;;;;1.65;1;;;;;;;3.16;99.0791;94375.09;;;;
2020/02/11 06:03:44;;;;;;;1.65;1;;;;;;;3.16;99.0791;94375.09;;;;
2020/02/11 06:04:44;;;;;;;1.65;1;;;;;;;3.16;99.0791;94375.09;;;;
2020/02/11 06:05:45;;;;;;;1.65;1;;;;;;;3.16;99.0791;94375.09;;;;
2020/02/11 06:06:45;;;;;;;1.7;1;;;;;;;3.28;98.82324;94388.55;;;;
2020/02/11 06:07:46;;;;;;;1.7;1;;;;;;;3.28;98.82324;94388.55;;;;
2020/02/11 06:08:46;;;;;;;1.7;1;;;;;;;3.28;98.82324;94388.55;;;;
2020/02/11 06:09:46;;;;;;;1.7;1;;;;;;;3.28;98.82324;94388.55;;;;
2020/02/11 06:10:47;;;;;;;1.7;1;;;;;;;3.28;98.82324;94388.55;;;;
2020/02/11 06:11:49;;;;;;;1.7;1;;;;;;;3.28;98.82324;94388.55;;;;
2020/02/11 06:12:50;;;;;;;1.7;1;;;;;;;3.28;98.82324;94388.55;;;;
2020/02/11 06:13:50;;;;;;;1.7;1;;;;;;;3.28;98.82324;94388.55;;;;
2020/02/11 06:14:51;;;;;;;1.7;1;;;;;;;3.28;98.82324;94388.55;;;;
2020/02/11 06:15:51;;;;;;;1.7;1;;;;;;;3.28;98.82324;94388.55;;;;
2020/02/11 06:16:55;;;;;;;3;1.1;;;;;;;3.42;98.76367;94437.62;;;;
2020/02/11 06:17:55;;;;;;;3;1.1;;;;;;;3.42;98.76367;94437.62;;;;
2020/02/11 06:18:56;;;;;;;3;1.1;;;;;;;3.42;98.76367;94437.62;;;;
2020/02/11 06:19:56;;;;;;;3;1.1;;;;;;;3.42;98.76367;94437.62;;;;
2020/02/11 06:20:56;;;;;;;3;1.1;;;;;;;3.42;98.76367;94437.62;;;;
2020/02/11 06:21:57;;;;;;;3;1.1;;;;;;;3.42;98.76367;94437.62;;;;
2020/02/11 06:22:57;;;;;;;3;1.1;;;;;;;3.42;98.76367;94437.62;;;;
2020/02/11 06:23:58;;;;;;;3;1.1;;;;;;;3.42;98.76367;94437.62;;;;
2020/02/11 06:24:58;;;;;;;3;1.1;;;;;;;3.42;98.76367;94437.62;;;;
2020/02/11 06:25:59;;;;;;;3;1.1;;;;;;;3.42;98.76367;94437.62;;;;
2020/02/11 06:27:00;;;;;;;3;1.1;;;;;;;3.42;98.76367;94437.62;;;;
2020/02/11 06:28:00;;;;;;;3.4;1.1;;;;;;;3.57;97.55273;94445.35;;;;
2020/02/11 06:29:00;;;;;;;3.4;1.1;;;;;;;3.57;97.55273;94445.35;;;;
2020/02/11 06:30:01;;;;;;;3.4;1.1;;;;;;;3.57;97.55273;94445.35;;;;
2020/02/11 06:31:06;;;;;;;3.4;1.1;;;;;;;3.57;97.55273;94445.35;;;;
2020/02/11 06:32:06;;;;;;;3.4;1.1;;;;;;;3.57;97.55273;94445.35;;;;
2020/02/11 06:33:06;;;;;;;3.4;1.1;;;;;;;3.57;97.55273;94445.35;;;;
2020/02/11 06:34:07;;;;;;;3.4;1.1;;;;;;;3.57;97.55273;94445.35;;;;
2020/02/11 06:35:08;;;;;;;3.4;1.1;;;;;;;3.57;97.55273;94445.35;;;;
2020/02/11 06:36:09;;;;;;;3.4;1.1;;;;;;;3.57;97.55273;94445.35;;;;
2020/02/11 06:37:10;;;;;;;3.4;1.1;;;;;;;3.57;97.55273;94445.35;;;;
2020/02/11 06:38:10;;;;;;;1.75;1;;;;;;;3.51;96.77637;94435.52;;;;
2020/02/11 06:39:11;;;;;;;1.75;1;;;;;;;3.51;96.77637;94435.52;;;;
2020/02/11 06:40:14;;;;;;;1.75;1;;;;;;;3.51;96.77637;94435.52;;;;
2020/02/11 06:41:16;;;;;;;1.75;1;;;;;;;3.51;96.77637;94435.52;;;;
2020/02/11 06:42:16;;;;;;;1.75;1;;;;;;;3.51;96.77637;94435.52;;;;
2020/02/11 06:43:17;;;;;;;1.75;1;;;;;;;3.51;96.77637;94435.52;;;;
2020/02/11 06:44:17;;;;;;;1.75;1;;;;;;;3.51;96.77637;94435.52;;;;
2020/02/11 06:45:18;;;;;;;1.75;1;;;;;;;3.51;96.77637;94435.52;;;;
2020/02/11 06:46:21;;;;;;;1.75;1;;;;;;;3.51;96.77637;94435.52;;;;
2020/02/11 06:47:22;;;;;;;1.75;1;;;;;;;3.51;96.77637;94435.52;;;;
2020/02/11 06:48:23;;;;;;;1.75;1;;;;;;;3.51;96.77637;94435.52;;;;
2020/02/11 06:49:23;;;;;;;2.6;1.2;;;;;;;3.54;96.60547;94460.47;;;;
2020/02/11 06:50:24;;;;;;;2.6;1.2;;;;;;;3.54;96.60547;94460.47;;;;
2020/02/11 06:51:25;;;;;;;2.6;1.2;;;;;;;3.54;96.60547;94460.47;;;;
2020/02/11 06:52:25;;;;;;;2.6;1.2;;;;;;;3.54;96.60547;94460.47;;;;
2020/02/11 06:53:26;;;;;;;2.6;1.2;;;;;;;3.54;96.60547;94460.47;;;;
2020/02/11 06:54:26;;;;;;;2.6;1.2;;;;;;;3.54;96.60547;94460.47;;;;
2020/02/11 06:55:27;;;;;;;2.6;1.2;;;;;;;3.54;96.60547;94460.47;;;;
2020/02/11 06:56:27;;;;;;;2.6;1.2;;;;;;;3.54;96.60547;94460.47;;;;
2020/02/11 06:57:28;;;;;;;2.6;1.2;;;;;;;3.54;96.60547;94460.47;;;;
2020/02/11 06:58:33;;;;;;;2.6;1.2;;;;;;;3.54;96.60547;94460.47;;;;
2020/02/11 06:59:36;;;;;;;2.55;1;;;;;;;3.53;96.42773;94494.33;;;;
2020/02/11 07:01:12;;;;;;;2.55;1;;;;;;;3.53;96.42773;94494.33;;;;
2020/02/11 07:02:17;;;;;;;2.55;1;;;;;;;3.53;96.42773;94494.33;;;;
2020/02/11 07:03:24;;;;;;;2.55;1;;;;;;;3.53;96.42773;94494.33;;;;
2020/02/11 07:04:29;;;;;;;2.55;1;;;;;;;3.53;96.42773;94494.33;;;;
2020/02/11 07:05:30;;;;;;;2.55;1;;;;;;;3.53;96.42773;94494.33;;;;
2020/02/11 07:06:30;;;;;;;2.55;1;;;;;;;3.53;96.42773;94494.33;;;;